Time;durP1;ratioP1;P1;durP2;ratioP2;P2;SDS_P1;SDS_P2;PMS_P1;PMS_P2;Temp;Humidity;BMP_temperature;BMP_pressure;BME280_temperature;BME280_humidity;BME280_pressure;Samples;Min_cycle;Max_cycle;Signal;HPM_P1;HPM_P2
2024/04/05 00:00:27;;;;;;;11.00;2.50;;;;;;;16.40;100.00;101361.03;10156198;29;20086;-88
2024/04/05 00:05:53;;;;;;;9.57;2.50;;;;;;;16.25;100.00;101365.44;10169314;29;20184;-88
2024/04/05 00:11:17;;;;;;;7.47;2.08;;;;;;;15.98;100.00;101362.69;10169721;29;20123;-87
2024/04/05 00:16:41;;;;;;;12.48;2.63;;;;;;;15.89;100.00;101360.88;10155817;29;20583;-88
2024/04/05 00:22:06;;;;;;;11.23;2.55;;;;;;;15.81;100.00;101362.66;10142451;29;20147;-88
2024/04/05 00:27:29;;;;;;;15.20;2.90;;;;;;;15.61;100.00;101364.34;10155860;29;20059;-88
2024/04/05 00:32:53;;;;;;;10.38;2.42;;;;;;;15.52;100.00;101364.25;10155238;29;20087;-88
2024/04/05 00:38:18;;;;;;;12.15;2.30;;;;;;;15.44;100.00;101358.88;10155249;29;20051;-88
2024/04/05 00:43:42;;;;;;;8.55;1.90;;;;;;;15.19;100.00;101362.28;10155386;29;20501;-86
2024/04/05 00:49:05;;;;;;;10.68;2.30;;;;;;;15.13;100.00;101362.25;10154549;29;20174;-86
2024/04/05 00:54:33;;;;;;;10.52;2.50;;;;;;;15.22;100.00;101348.13;10141820;29;20060;-85
2024/04/05 00:59:57;;;;;;;;;;;;;;;15.27;100.00;101341.94;10155485;29;20060;-87
2024/04/05 01:05:20;;;;;;;8.13;2.65;;;;;;;15.14;100.00;101345.41;10155505;29;19923;-84
2024/04/05 01:10:45;;;;;;;9.73;2.20;;;;;;;15.06;100.00;101355.09;10141657;29;20059;-85
2024/04/05 01:16:09;;;;;;;8.50;2.00;;;;;;;14.91;100.00;101358.53;10169284;29;20112;-87
2024/04/05 01:21:31;;;;;;;11.23;2.20;;;;;;;14.79;100.00;101355.78;10148927;29;20063;-87
2024/04/05 01:26:56;;;;;;;8.60;2.42;;;;;;;14.77;100.00;101358.41;10148225;29;20163;-86
2024/04/05 01:32:20;;;;;;;7.57;2.08;;;;;;;14.66;100.00;101364.53;10161149;29;20060;-87
2024/04/05 01:37:43;;;;;;;14.60;3.22;;;;;;;14.62;100.00;101365.41;10160660;29;20420;-88
2024/04/05 01:43:07;;;;;;;10.75;2.40;;;;;;;14.59;100.00;101371.56;10148424;29;20079;-87
2024/04/05 01:48:32;;;;;;;9.13;2.00;;;;;;;14.48;100.00;101381.22;10161097;29;20044;-88
2024/04/05 01:53:55;;;;;;;11.13;2.45;;;;;;;14.47;100.00;101382.06;10173074;29;20135;-88
2024/04/05 01:59:22;;;;;;;9.38;2.22;;;;;;;14.31;100.00;101381.00;10160233;29;20052;-89
2024/04/05 02:04:48;;;;;;;13.35;3.90;;;;;;;14.23;100.00;101395.97;10160309;29;20127;-87
2024/04/05 02:10:12;;;;;;;14.57;3.30;;;;;;;14.22;100.00;101399.50;10160398;29;20056;-87
2024/04/05 02:15:46;;;;;;;11.48;2.65;;;;;;;14.14;100.00;101398.53;10172269;29;20078;-86
2024/04/05 02:21:14;;;;;;;8.13;2.20;;;;;;;14.18;100.00;101397.66;10146747;29;20413;-87
2024/04/05 02:26:36;;;;;;;7.00;2.65;;;;;;;14.18;100.00;101400.31;10146876;29;20060;-88
2024/04/05 02:32:02;;;;;;;7.22;2.15;;;;;;;14.23;100.00;101405.72;10158762;29;20084;-87
2024/04/05 02:37:28;;;;;;;7.85;2.17;;;;;;;14.19;100.00;101407.41;10145699;29;20048;-88
2024/04/05 02:42:52;;;;;;;8.98;2.28;;;;;;;14.08;100.00;101401.09;10145710;29;20052;-84
2024/04/05 02:48:19;;;;;;;8.20;1.90;;;;;;;13.97;100.00;101413.38;10171565;29;20063;-86
2024/04/05 02:53:42;;;;;;;14.85;3.53;;;;;;;14.01;100.00;101412.53;10171227;29;20119;-88
2024/04/05 02:59:07;;;;;;;7.22;2.80;;;;;;;14.09;100.00;101405.56;10144397;29;20052;-87
2024/04/05 03:04:35;;;;;;;5.38;1.85;;;;;;;14.10;100.00;101411.75;10157714;29;20068;-91
2024/04/05 03:09:57;;;;;;;6.82;2.00;;;;;;;14.15;100.00;101407.38;10171132;29;20052;-87
2024/04/05 03:15:20;;;;;;;6.07;1.90;;;;;;;14.20;100.00;101417.19;10144065;29;20056;-87
2024/04/05 03:20:45;;;;;;;11.88;2.67;;;;;;;14.25;100.00;101411.91;10157472;29;20080;-87
2024/04/05 03:26:08;;;;;;;7.22;1.85;;;;;;;14.36;100.00;101423.56;10156828;29;20147;-87
2024/04/05 03:31:32;;;;;;;11.75;3.15;;;;;;;14.65;100.00;101424.75;10157232;29;20254;-88
2024/04/05 03:37:01;;;;;;;8.38;2.72;;;;;;;14.90;100.00;101423.22;10157091;29;20060;-87
2024/04/05 03:42:24;;;;;;;9.68;2.45;;;;;;;15.09;100.00;101435.81;10156156;29;20072;-87
2024/04/05 03:47:48;;;;;;;11.38;2.65;;;;;;;15.20;100.00;101429.66;10143618;29;20084;-88
2024/04/05 03:53:16;;;;;;;11.13;3.10;;;;;;;15.40;100.00;101434.25;10142958;29;20497;-88
2024/04/05 03:58:41;;;;;;;15.13;3.60;;;;;;;15.55;100.00;101446.81;10129979;29;20088;-88
2024/04/05 04:04:11;;;;;;;14.85;3.83;;;;;;;15.74;100.00;101453.13;10130877;29;20068;-87
2024/04/05 04:09:36;;;;;;;14.82;2.97;;;;;;;15.93;100.00;101447.91;10130211;29;20056;-88
2024/04/05 04:15:02;;;;;;;14.75;3.05;;;;;;;16.03;100.00;101455.91;10129449;29;20116;-88
2024/04/05 04:20:25;;;;;;;13.77;2.42;;;;;;;16.20;100.00;101464.88;10142145;29;20382;-88
2024/04/05 04:25:51;;;;;;;14.13;2.60;;;;;;;16.37;100.00;101463.16;10104546;29;20132;-88
2024/04/05 04:31:20;;;;;;;12.43;2.30;;;;;;;16.49;100.00;101473.84;10116068;29;20063;-87
2024/04/05 04:36:46;;;;;;;11.20;2.90;;;;;;;16.65;100.00;101470.38;10117203;29;20070;-88
2024/04/05 04:42:17;;;;;;;16.52;3.17;;;;;;;16.82;100.00;101477.50;10121542;29;20057;-87
2024/04/05 04:47:39;;;;;;;14.88;2.95;;;;;;;16.90;100.00;101473.97;10153161;29;20057;-85
2024/04/05 04:53:02;;;;;;;8.23;2.53;;;;;;;17.23;100.00;101482.88;10146450;29;20112;-86
2024/04/05 04:58:29;;;;;;;5.75;1.88;;;;;;;17.83;100.00;101487.28;10122830;29;20059;-87
2024/04/05 05:03:52;;;;;;;9.27;2.35;;;;;;;18.44;100.00;101484.41;10158267;29;20084;-88
2024/04/05 05:09:15;;;;;;;10.85;2.42;;;;;;;19.09;100.00;101482.22;10186720;29;20682;-88
2024/04/05 05:14:39;;;;;;;14.93;3.38;;;;;;;19.75;100.00;101470.94;10157776;29;20059;-89
2024/04/05 05:20:02;;;;;;;6.20;1.75;;;;;;;20.38;100.00;101477.34;10135773;29;20063;-88
2024/04/05 05:25:24;;;;;;;8.63;1.98;;;;;;;20.93;100.00;101461.34;10131381;29;20117;-90
2024/04/05 05:30:48;;;;;;;14.75;2.20;;;;;;;21.23;100.00;101465.34;10156016;29;20390;-88
2024/04/05 05:36:11;;;;;;;8.65;2.33;;;;;;;20.97;100.00;101464.84;10148920;29;20156;-88
2024/04/05 05:41:36;;;;;;;9.85;2.80;;;;;;;20.53;100.00;101476.25;10120999;29;20053;-88
2024/04/05 05:47:00;;;;;;;10.27;2.17;;;;;;;20.24;100.00;101481.94;10100988;29;20080;-87
2024/04/05 05:52:28;;;;;;;8.27;2.35;;;;;;;20.14;100.00;101497.28;10082130;29;20057;-88
2024/04/05 05:57:51;;;;;;;6.30;2.38;;;;;;;20.20;100.00;101496.31;10106290;29;20485;-88
2024/04/05 06:03:16;;;;;;;5.60;2.15;;;;;;;20.33;100.00;101497.09;10120809;29;20057;-88
2024/04/05 06:08:40;;;;;;;5.25;2.08;;;;;;;20.40;100.00;101504.16;10108286;29;20053;-88
2024/04/05 06:14:02;;;;;;;8.77;3.33;;;;;;;20.83;100.00;101504.44;10131209;29;20055;-88
2024/04/05 06:19:26;;;;;;;6.97;2.47;;;;;;;21.56;99.68;101511.34;10146395;29;20064;-88
2024/04/05 06:24:52;;;;;;;7.35;1.80;;;;;;;22.22;96.72;101518.16;10146694;29;20553;-89
2024/04/05 06:30:15;;;;;;;8.52;1.70;;;;;;;23.25;90.66;101522.16;10172650;29;20052;-88
2024/04/05 06:35:41;;;;;;;6.80;2.80;;;;;;;24.19;80.91;101534.09;10145721;29;20056;-88
2024/04/05 06:41:05;;;;;;;7.60;1.88;;;;;;;24.89;67.44;101526.63;10172089;29;20062;-90
2024/04/05 06:46:28;;;;;;;6.20;2.17;;;;;;;25.25;59.66;101526.38;10145791;29;20131;-90
2024/04/05 06:51:52;;;;;;;5.72;2.30;;;;;;;25.70;56.47;101532.09;10158910;29;20107;-89
2024/04/05 06:57:16;;;;;;;9.10;1.98;;;;;;;26.14;51.57;101531.38;10158223;29;20060;-91
2024/04/05 07:02:40;;;;;;;5.07;1.85;;;;;;;26.53;49.36;101518.19;10171719;29;20087;-91
2024/04/05 07:08:08;;;;;;;4.70;2.00;;;;;;;26.72;45.54;101523.78;10158111;29;20088;-90
2024/04/05 07:13:34;;;;;;;4.78;1.45;;;;;;;26.79;45.21;101521.72;10144161;29;20060;-92
2024/04/05 07:18:57;;;;;;;;;;;;;;;27.00;43.45;101536.28;10157842;29;20055;-91
2024/04/05 07:24:26;;;;;;;10.20;1.90;;;;;;;27.22;43.58;101535.38;10143811;29;19934;-91
2024/04/05 07:29:49;;;;;;;12.32;1.73;;;;;;;27.55;42.85;101546.69;10157429;29;20064;-91
2024/04/05 07:35:12;;;;;;;6.40;2.10;;;;;;;27.75;41.55;101544.00;10156652;29;20048;-92
2024/04/05 07:40:36;;;;;;;4.00;1.27;;;;;;;28.06;41.30;101556.22;10156340;29;20481;-91
2024/04/05 07:45:58;;;;;;;6.43;1.75;;;;;;;28.34;40.76;101559.50;10156712;29;20067;-92
2024/04/05 07:51:21;;;;;;;3.33;1.38;;;;;;;28.33;39.39;101557.72;10143799;29;20422;-93
2024/04/05 07:56:45;;;;;;;6.18;1.92;;;;;;;28.44;39.90;101566.25;10142722;29;20413;-92
2024/04/05 08:02:09;;;;;;;4.38;1.70;;;;;;;28.51;39.50;101567.75;10169235;29;20091;-91
2024/04/05 08:07:32;;;;;;;5.00;1.30;;;;;;;28.68;38.85;101560.66;10143102;29;20108;-90
2024/04/05 08:12:56;;;;;;;3.35;1.27;;;;;;;28.89;38.04;101562.38;10169138;29;20059;-90
2024/04/05 08:18:26;;;;;;;7.80;1.50;;;;;;;29.20;37.62;101559.97;10169333;29;20063;-89
2024/04/05 08:23:49;;;;;;;4.68;1.20;;;;;;;29.28;36.71;101562.28;10156617;29;20076;-89
2024/04/05 08:29:13;;;;;;;5.65;1.55;;;;;;;29.53;36.04;101562.88;10150608;29;20056;-91
2024/04/05 08:34:36;;;;;;;4.03;1.48;;;;;;;29.46;35.94;101557.81;10163316;29;20062;-91
2024/04/05 08:39:58;;;;;;;5.85;1.52;;;;;;;29.70;35.11;101548.38;10163951;29;20056;-90
2024/04/05 08:45:22;;;;;;;7.47;1.50;;;;;;;29.79;34.76;101538.88;10163659;29;20617;-89
2024/04/05 08:50:45;;;;;;;7.63;1.40;;;;;;;29.89;34.18;101532.84;10163370;29;20109;-89
2024/04/05 08:56:08;;;;;;;5.03;1.42;;;;;;;29.99;33.56;101545.06;10154396;29;20067;-89
2024/04/05 09:01:33;;;;;;;11.82;1.60;;;;;;;30.19;33.15;101535.84;10148058;29;20509;-86
2024/04/05 09:06:58;;;;;;;3.97;1.63;;;;;;;30.32;32.42;101536.94;10174175;29;20575;-93
2024/04/05 09:12:26;;;;;;;7.60;1.55;;;;;;;30.38;31.49;101533.00;10148732;29;20446;-91
2024/04/05 09:17:50;;;;;;;;;;;;;;;30.33;31.12;101535.94;10122805;29;20616;-90
2024/04/05 09:23:15;;;;;;;4.63;1.73;;;;;;;30.57;30.83;101533.78;10153601;29;20439;-88
2024/04/05 09:28:39;;;;;;;5.40;1.63;;;;;;;30.81;30.00;101534.25;10160874;29;20060;-87
2024/04/05 09:34:10;;;;;;;3.88;1.17;;;;;;;31.00;29.04;101529.50;10174267;29;20418;-90
2024/04/05 09:39:35;;;;;;;6.20;1.30;;;;;;;31.00;29.09;101523.16;10123410;29;20146;-91
2024/04/05 09:45:06;;;;;;;3.10;1.30;;;;;;;31.03;29.07;101531.19;10165421;29;20055;-88
2024/04/05 09:50:32;;;;;;;4.95;1.25;;;;;;;31.35;28.81;101526.59;10199561;29;20058;-91
2024/04/05 09:56:01;;;;;;;7.68;1.85;;;;;;;31.34;27.92;101525.72;10186301;29;20067;-92
2024/04/05 10:01:25;;;;;;;11.32;1.40;;;;;;;31.20;28.69;101523.81;10212659;29;20055;-94
2024/04/05 10:06:57;;;;;;;9.07;1.57;;;;;;;31.44;28.58;101520.63;10199264;29;20058;-94
2024/04/05 10:12:25;;;;;;;5.70;1.27;;;;;;;31.18;27.83;101535.75;10164382;29;20093;-96
2024/04/05 10:17:57;;;;;;;6.43;1.50;;;;;;;31.21;29.06;101538.31;10148585;29;20420;-94
2024/04/05 10:23:23;;;;;;;3.63;1.30;;;;;;;31.35;29.37;101530.22;10188776;29;20055;-95
2024/04/05 10:28:46;;;;;;;6.77;1.57;;;;;;;31.51;29.46;101527.44;10233121;29;20059;-96
2024/04/05 10:34:09;;;;;;;6.63;1.88;;;;;;;31.39;29.01;101520.88;10194017;29;20504;-94
2024/04/05 10:39:33;;;;;;;6.40;2.15;;;;;;;30.99;29.98;101524.13;10198708;29;20055;-94
2024/04/05 10:44:59;;;;;;;7.03;1.40;;;;;;;30.93;30.55;101524.47;10191769;29;20509;-94
2024/04/05 10:50:25;;;;;;;4.75;1.80;;;;;;;30.89;30.29;101523.78;10150853;29;20052;-92
2024/04/05 10:55:51;;;;;;;9.98;7.43;;;;;;;30.69;29.91;101522.19;10182287;29;20086;-91
2024/04/05 11:01:14;;;;;;;13.38;3.72;;;;;;;30.44;31.37;101522.63;10183580;29;20087;-93
2024/04/05 11:06:39;;;;;;;10.18;2.20;;;;;;;30.06;31.18;101512.94;10209667;29;20111;-89
2024/04/05 11:12:04;;;;;;;11.00;5.35;;;;;;;29.58;33.05;101527.25;10195846;29;20063;-93
2024/04/05 11:23:48;;;;;;;8.35;3.72;;;;;;;28.85;34.50;101518.16;10126530;29;20056;-94
2024/04/05 11:29:13;;;;;;;16.60;10.93;;;;;;;28.68;34.49;101517.19;10142709;29;20084;-93
2024/04/05 11:34:35;;;;;;;7.82;2.90;;;;;;;28.53;34.13;101513.34;10142875;29;20059;-87
2024/04/05 11:39:59;;;;;;;9.13;4.32;;;;;;;28.52;34.31;101515.16;10143242;29;20060;-89
2024/04/05 11:45:23;;;;;;;6.22;1.70;;;;;;;28.46;33.34;101515.47;10164801;29;20050;-89
2024/04/05 11:50:47;;;;;;;11.25;2.20;;;;;;;28.33;33.65;101510.66;10168275;29;20138;-92
2024/04/05 11:56:10;;;;;;;3.58;1.80;;;;;;;28.04;33.89;101501.09;10178600;29;20460;-91
2024/04/05 12:01:35;;;;;;;9.95;1.58;;;;;;;27.95;34.53;101482.50;10154708;29;20584;-91
2024/04/05 12:06:59;;;;;;;5.60;1.50;;;;;;;27.94;34.60;101492.50;10132551;29;20056;-90
2024/04/05 12:12:22;;;;;;;9.15;2.20;;;;;;;27.61;35.10;101483.13;10155125;29;20040;-87
2024/04/05 12:17:50;;;;;;;8.23;1.30;;;;;;;27.42;35.57;101476.69;10146623;29;20402;-89
2024/04/05 12:23:13;;;;;;;6.68;1.70;;;;;;;27.33;35.49;101470.69;10154876;29;20064;-90
2024/04/05 12:28:35;;;;;;;5.75;1.40;;;;;;;27.19;35.66;101475.81;10168692;29;20083;-90
2024/04/05 12:34:02;;;;;;;6.10;1.75;;;;;;;27.08;35.96;101467.25;10142354;29;20080;-90
2024/04/05 12:39:28;;;;;;;4.07;1.20;;;;;;;26.79;36.43;101452.16;10155769;29;20243;-90
2024/04/05 12:44:56;;;;;;;5.38;1.63;;;;;;;26.75;36.20;101450.53;10155813;29;20091;-90
2024/04/05 12:50:21;;;;;;;4.88;1.63;;;;;;;26.67;36.74;101452.66;10142612;29;20390;-90
2024/04/05 12:55:54;;;;;;;6.57;1.90;;;;;;;26.67;36.70;101455.34;10154436;29;20445;-90
2024/04/05 13:01:16;;;;;;;5.85;1.83;;;;;;;26.57;36.86;101446.72;10142024;29;20147;-87
2024/04/05 13:06:42;;;;;;;6.38;3.10;;;;;;;26.62;36.79;101451.06;10142354;29;20401;-89
2024/04/05 13:12:11;;;;;;;5.97;2.15;;;;;;;26.61;35.86;101436.63;10157033;29;20060;-91
2024/04/05 13:17:44;;;;;;;8.00;1.35;;;;;;;26.50;35.29;101431.66;10161152;29;20059;-89
2024/04/05 13:23:11;;;;;;;5.28;1.42;;;;;;;26.49;35.39;101438.03;10148839;29;20067;-90
2024/04/05 13:28:34;;;;;;;6.50;2.10;;;;;;;26.49;35.11;101454.28;10161566;29;20060;-88
2024/04/05 13:33:56;;;;;;;3.45;1.45;;;;;;;26.44;34.13;101431.91;10162051;29;20059;-89
2024/04/05 13:39:23;;;;;;;7.55;1.60;;;;;;;26.33;33.95;101439.53;10162212;29;20060;-89
2024/04/05 13:44:45;;;;;;;4.03;1.58;;;;;;;26.20;35.13;101443.63;10161426;29;20561;-89
2024/04/05 13:50:10;;;;;;;4.78;1.63;;;;;;;26.15;34.97;101440.22;10161529;29;20048;-90
2024/04/05 13:55:37;;;;;;;4.05;1.35;;;;;;;26.24;36.20;101430.88;10147537;29;20056;-88
2024/04/05 14:01:01;;;;;;;5.75;1.63;;;;;;;26.09;35.95;101444.06;10174078;29;20079;-89
2024/04/05 14:06:24;;;;;;;5.57;2.22;;;;;;;25.98;36.59;101434.59;10147492;29;20062;-91
2024/04/05 14:11:48;;;;;;;5.63;1.20;;;;;;;25.85;37.17;101434.16;10173234;29;20056;-89
2024/04/05 14:17:11;;;;;;;2.92;1.33;;;;;;;25.79;38.02;101434.38;10146511;29;20064;-90
2024/04/05 14:22:35;;;;;;;3.17;1.45;;;;;;;25.85;37.23;101438.69;10159394;29;20060;-89
2024/04/05 14:28:02;;;;;;;8.10;1.50;;;;;;;25.88;36.75;101423.19;10146698;29;20048;-89
2024/04/05 14:33:29;;;;;;;6.65;1.65;;;;;;;25.80;37.88;101441.53;10159399;29;20064;-91
2024/04/05 14:38:55;;;;;;;4.60;1.52;;;;;;;25.89;37.01;101434.91;10159596;29;20079;-89
2024/04/05 14:44:19;;;;;;;5.93;1.40;;;;;;;26.04;36.10;101442.47;10145768;29;20099;-90
2024/04/05 14:49:44;;;;;;;6.03;1.65;;;;;;;26.01;35.06;101437.16;10172300;29;20056;-89
2024/04/05 14:55:08;;;;;;;5.22;1.17;;;;;;;25.99;35.10;101447.19;10158566;29;20092;-90
2024/04/05 15:00:32;;;;;;;4.65;1.50;;;;;;;25.72;35.96;101443.66;10158775;29;20509;-91
2024/04/05 15:06:09;;;;;;;3.90;1.70;;;;;;;25.35;36.94;101438.63;10171032;29;20060;-90
2024/04/05 15:11:33;;;;;;;8.53;2.13;;;;;;;24.82;38.03;101434.97;10158752;29;20620;-90
2024/04/05 15:16:59;;;;;;;5.05;1.70;;;;;;;24.52;39.06;101443.13;10157082;29;21147;-89
2024/04/05 15:22:22;;;;;;;4.90;1.77;;;;;;;24.27;39.93;101442.13;10151422;29;20891;-89
2024/04/05 15:27:45;;;;;;;7.78;1.98;;;;;;;24.01;41.35;101447.38;10133366;29;20055;-87
2024/04/05 15:33:09;;;;;;;9.02;2.25;;;;;;;23.77;42.38;101441.72;10130718;29;20651;-88
2024/04/05 15:38:33;;;;;;;8.05;1.63;;;;;;;23.63;42.59;101443.06;10155204;29;20056;-86
2024/04/05 15:43:56;;;;;;;3.85;1.27;;;;;;;23.48;42.72;101441.66;10142155;29;20151;-88
2024/04/05 15:49:21;;;;;;;8.10;2.13;;;;;;;23.23;41.83;101438.69;10143383;29;20151;-89
2024/04/05 15:54:44;;;;;;;4.22;1.70;;;;;;;23.10;41.96;101441.72;10168182;29;20488;-88
2024/04/05 16:00:08;;;;;;;8.95;2.05;;;;;;;22.99;41.92;101452.75;10177281;29;20052;-90
2024/04/05 16:05:35;;;;;;;4.32;1.50;;;;;;;22.83;41.97;101452.25;10169711;29;20076;-88
2024/04/05 16:11:03;;;;;;;4.32;2.10;;;;;;;22.66;42.10;101449.03;10154651;29;20255;-85
2024/04/05 16:16:26;;;;;;;3.95;1.60;;;;;;;22.50;42.51;101445.81;10141185;29;20056;-85
2024/04/05 16:21:49;;;;;;;5.38;1.85;;;;;;;22.34;42.78;101447.06;10110903;29;20056;-88
2024/04/05 16:27:12;;;;;;;5.78;1.73;;;;;;;22.21;43.26;101451.81;10115470;29;20071;-86
2024/04/05 16:32:39;;;;;;;3.97;1.58;;;;;;;22.11;43.80;101454.75;10115723;29;20056;-87
2024/04/05 16:38:03;;;;;;;6.18;2.28;;;;;;;21.94;44.29;101465.81;10124075;29;20064;-87
2024/04/05 16:43:28;;;;;;;3.97;1.65;;;;;;;21.75;44.69;101454.53;10136501;29;20052;-89
2024/04/05 16:48:51;;;;;;;3.33;1.55;;;;;;;21.60;45.45;101456.59;10147467;29;20060;-84
2024/04/05 16:54:16;;;;;;;3.92;1.50;;;;;;;21.48;46.28;101461.31;10177759;29;20497;-86
2024/04/05 16:59:39;;;;;;;5.32;1.60;;;;;;;21.37;47.11;101465.09;10189932;29;20048;-85
2024/04/05 17:05:02;;;;;;;6.35;1.63;;;;;;;21.29;48.68;101473.28;10119713;29;20132;-85
2024/04/05 17:10:36;;;;;;;7.80;2.20;;;;;;;21.28;49.80;101476.00;10149005;29;20144;-85
2024/04/05 17:15:59;;;;;;;3.22;2.10;;;;;;;21.18;49.83;101477.06;10136212;29;20071;-85
2024/04/05 17:21:21;;;;;;;4.63;1.65;;;;;;;21.13;49.76;101478.91;10139078;29;20056;-83
2024/04/05 17:26:45;;;;;;;7.82;2.65;;;;;;;21.07;49.99;101487.94;10156750;29;20429;-82
2024/04/05 17:32:11;;;;;;;3.72;1.45;;;;;;;20.99;50.90;101489.88;10144128;29;20592;-83
2024/04/05 17:37:34;;;;;;;4.60;1.98;;;;;;;20.88;51.96;101491.81;10175304;29;20052;-83
2024/04/05 17:42:59;;;;;;;7.30;3.00;;;;;;;20.87;53.44;101490.06;10162464;29;20048;-83
2024/04/05 17:48:22;;;;;;;3.78;1.58;;;;;;;20.79;54.48;101492.88;10156174;29;20056;-83
2024/04/05 17:53:45;;;;;;;4.90;2.47;;;;;;;20.72;57.09;101491.19;10097195;29;20061;-84
2024/04/05 17:59:12;;;;;;;6.00;2.35;;;;;;;20.68;58.81;101490.31;10144194;29;20181;-85
2024/04/05 18:04:34;;;;;;;4.38;1.63;;;;;;;20.62;59.92;101485.03;10136501;29;20068;-82
2024/04/05 18:09:57;;;;;;;3.55;1.80;;;;;;;20.58;60.22;101486.00;10122158;29;20053;-82
2024/04/05 18:15:21;;;;;;;7.95;1.77;;;;;;;20.55;59.72;101486.03;10172633;29;20076;-84
2024/04/05 18:20:43;;;;;;;6.03;2.42;;;;;;;20.53;59.84;101487.88;10148986;29;20080;-84
2024/04/05 18:26:06;;;;;;;7.97;2.08;;;;;;;20.51;62.19;101488.78;10148910;29;20064;-85
2024/04/05 18:31:30;;;;;;;6.53;2.60;;;;;;;20.50;64.49;101487.91;10121887;29;20151;-83
2024/04/05 18:36:54;;;;;;;9.50;3.45;;;;;;;20.50;65.23;101493.25;10147981;29;20052;-82
2024/04/05 18:42:23;;;;;;;3.83;1.33;;;;;;;20.48;64.39;101486.16;10135193;29;20053;-83
2024/04/05 18:47:48;;;;;;;3.38;1.70;;;;;;;20.43;63.58;101493.38;10133492;29;20060;-83
2024/04/05 18:53:15;;;;;;;4.63;1.98;;;;;;;20.32;65.66;101498.84;10171361;29;20103;-91
2024/04/05 18:58:38;;;;;;;5.00;2.03;;;;;;;20.22;66.87;101500.72;10133211;29;20057;-84
2024/04/05 19:04:02;;;;;;;4.82;1.95;;;;;;;20.19;71.45;101502.59;10122120;29;20299;-86
2024/04/05 19:09:25;;;;;;;7.03;2.00;;;;;;;20.19;71.54;101510.63;10121284;29;20073;-85
2024/04/05 19:14:48;;;;;;;6.75;2.90;;;;;;;20.15;71.41;101523.16;10117844;29;20117;-85
2024/04/05 19:20:17;;;;;;;9.65;3.90;;;;;;;20.17;71.51;101526.72;10118667;29;20059;-84
2024/04/05 19:25:42;;;;;;;5.65;1.77;;;;;;;20.08;71.41;101525.97;10146890;29;20624;-86
2024/04/05 19:31:11;;;;;;;3.70;1.77;;;;;;;20.00;72.66;101522.47;10121692;29;20541;-81
2024/04/05 19:36:35;;;;;;;5.05;1.50;;;;;;;19.94;73.03;101515.38;10140646;29;20084;-83
2024/04/05 19:41:57;;;;;;;6.38;1.92;;;;;;;19.89;73.29;101512.72;10133801;29;20084;-84
2024/04/05 19:47:23;;;;;;;4.28;1.50;;;;;;;19.87;73.42;101517.25;10128397;29;20494;-83
2024/04/05 19:52:48;;;;;;;4.43;2.20;;;;;;;19.81;73.86;101525.34;10146036;29;20063;-82
2024/04/05 19:58:11;;;;;;;8.05;2.53;;;;;;;19.79;74.29;101515.53;10131800;29;20151;-84
2024/04/05 20:03:34;;;;;;;8.60;2.55;;;;;;;19.78;74.92;101524.47;10133090;29;20064;-83
2024/04/05 20:08:58;;;;;;;5.97;1.67;;;;;;;19.80;75.52;101517.31;10119605;29;20394;-84
2024/04/05 20:14:21;;;;;;;3.70;1.45;;;;;;;19.75;77.36;101517.38;10119479;29;20045;-83
2024/04/05 20:19:44;;;;;;;4.35;1.80;;;;;;;19.77;77.26;101520.00;10143791;29;20143;-86
2024/04/05 20:25:09;;;;;;;6.82;2.08;;;;;;;19.71;78.02;101517.41;10146519;29;20076;-84
2024/04/05 20:36:14;;;;;;;5.25;1.83;;;;;;;19.56;78.82;101518.41;10125096;29;20057;-84
2024/04/05 20:41:38;;;;;;;5.72;1.80;;;;;;;19.53;78.08;101514.91;10128600;29;20056;-84
2024/04/05 20:47:00;;;;;;;7.78;2.00;;;;;;;19.46;78.55;101517.63;10129890;29;20049;-84
2024/04/05 20:52:23;;;;;;;5.25;1.60;;;;;;;19.41;78.89;101503.38;10116467;29;20052;-85
2024/04/05 20:57:47;;;;;;;6.15;1.80;;;;;;;19.38;79.78;101507.84;10126050;29;20159;-85
2024/04/05 21:03:09;;;;;;;5.75;1.70;;;;;;;19.29;81.08;101499.91;10129076;29;20076;-85
2024/04/05 21:08:32;;;;;;;3.72;1.40;;;;;;;19.22;82.34;101503.53;10141493;29;20058;-85
2024/04/05 21:13:57;;;;;;;7.60;2.13;;;;;;;19.32;81.43;101502.53;10141910;29;20052;-85
2024/04/05 21:19:20;;;;;;;3.60;1.60;;;;;;;19.31;80.29;101495.41;10141373;29;20544;-86
2024/04/05 21:24:46;;;;;;;3.35;1.52;;;;;;;19.21;80.26;101493.72;10141142;29;20052;-85
2024/04/05 21:30:14;;;;;;;6.70;1.70;;;;;;;19.13;81.51;101491.09;10141776;29;20068;-84
2024/04/05 21:35:38;;;;;;;6.22;1.95;;;;;;;19.03;82.76;101489.41;10158891;29;20060;-85
2024/04/05 21:41:01;;;;;;;3.20;1.67;;;;;;;19.03;82.58;101494.75;10161731;29;20048;-86
2024/04/05 21:46:25;;;;;;;3.65;1.48;;;;;;;18.96;82.36;101480.53;10135389;29;20114;-84
2024/04/05 21:51:47;;;;;;;4.97;1.70;;;;;;;18.92;82.21;101477.88;10172785;29;20052;-82
2024/04/05 21:57:10;;;;;;;3.85;1.65;;;;;;;18.94;82.40;101476.09;10173066;29;20056;-86
2024/04/05 22:02:34;;;;;;;4.32;1.58;;;;;;;19.00;83.09;101466.22;10160392;29;20047;-84
2024/04/05 22:07:56;;;;;;;9.32;1.70;;;;;;;19.05;82.52;101459.03;10147632;29;20067;-84
2024/04/05 22:13:20;;;;;;;5.07;1.58;;;;;;;19.10;81.15;101462.56;10147488;29;20060;-84
2024/04/05 22:18:45;;;;;;;4.75;1.67;;;;;;;19.13;79.99;101468.78;10146866;29;20434;-84
2024/04/05 22:24:07;;;;;;;3.03;1.42;;;;;;;19.11;79.78;101460.78;10133816;29;20124;-85
2024/04/05 22:29:30;;;;;;;5.22;1.60;;;;;;;19.09;79.94;101458.13;10159260;29;20060;-86
2024/04/05 22:34:55;;;;;;;5.35;1.92;;;;;;;19.10;79.75;101459.00;10159414;29;20059;-84
2024/04/05 22:40:19;;;;;;;4.13;1.40;;;;;;;19.06;79.44;101430.47;10145876;29;20508;-85
2024/04/05 22:45:42;;;;;;;4.70;1.90;;;;;;;19.08;79.33;101429.59;10158689;29;20111;-84
2024/04/05 22:51:09;;;;;;;5.93;1.52;;;;;;;19.14;79.39;101400.97;10145629;29;20055;-86
2024/04/05 22:56:31;;;;;;;5.88;2.30;;;;;;;19.16;77.55;101431.31;10171522;29;20097;-85
2024/04/05 23:01:54;;;;;;;6.68;1.60;;;;;;;19.22;76.71;101447.31;10144960;29;20071;-85
2024/04/05 23:07:18;;;;;;;5.32;1.92;;;;;;;19.20;78.21;101435.72;10145145;29;20111;-85
2024/04/05 23:12:41;;;;;;;4.50;1.30;;;;;;;19.18;78.47;101424.13;10145024;29;20056;-85
2024/04/05 23:18:03;;;;;;;6.03;1.52;;;;;;;19.12;78.80;101414.38;10170604;29;20052;-84
2024/04/05 23:23:28;;;;;;;4.18;1.60;;;;;;;19.08;78.79;101420.66;10158103;29;20064;-84
2024/04/05 23:28:51;;;;;;;5.20;1.52;;;;;;;19.04;78.84;101432.28;10157998;29;20111;-85
2024/04/05 23:34:13;;;;;;;4.55;1.60;;;;;;;19.07;77.78;101433.16;10144670;29;20044;-84
2024/04/05 23:39:41;;;;;;;6.60;1.40;;;;;;;19.09;78.08;101428.69;10144263;29;20075;-84
2024/04/05 23:45:05;;;;;;;6.40;1.52;;;;;;;19.06;78.69;101419.78;10141182;29;20095;-85
2024/04/05 23:50:28;;;;;;;9.85;2.13;;;;;;;19.03;79.40;101415.31;10144449;29;20060;-85
2024/04/05 23:55:52;;;;;;;3.90;1.45;;;;;;;19.04;80.72;101417.09;10142207;29;20451;-85
